Time;durP1;ratioP1;P1;durP2;ratioP2;P2;SDS_P1;SDS_P2;PMS_P1;PMS_P2;Temp;Humidity;BMP_temperature;BMP_pressure;BME280_temperature;BME280_humidity;BME280_pressure;Samples;Min_cycle;Max_cycle;Signal;HPM_P1;HPM_P2
2022/08/16 00:00:42;;;;;;;20.00;14.02;;;22.00;99.90;;;;;;5011926;28;20042;-64
2022/08/16 00:03:11;;;;;;;17.25;14.45;;;22.00;99.90;;;;;;5012672;28;20442;-65
2022/08/16 00:05:37;;;;;;;18.05;13.40;;;21.90;99.90;;;;;;5012594;28;20053;-65
2022/08/16 00:08:03;;;;;;;16.88;13.20;;;21.90;99.90;;;;;;5011065;28;20502;-65
2022/08/16 00:10:32;;;;;;;18.30;14.90;;;21.90;99.90;;;;;;5012063;28;20057;-65
2022/08/16 00:12:58;;;;;;;18.80;15.25;;;21.80;99.90;;;;;;5012289;28;20041;-65
2022/08/16 00:15:35;;;;;;;21.35;15.63;;;21.80;99.90;;;;;;5011953;28;20045;-65
2022/08/16 00:18:03;;;;;;;17.63;15.73;;;21.80;99.90;;;;;;5012128;28;20501;-65
2022/08/16 00:20:29;;;;;;;18.95;14.77;;;21.80;99.90;;;;;;5011664;28;20446;-65
2022/08/16 00:22:54;;;;;;;18.17;14.23;;;21.80;99.90;;;;;;5012122;28;20041;-65
2022/08/16 00:25:22;;;;;;;18.77;13.68;;;21.70;99.90;;;;;;5011996;28;20425;-65
2022/08/16 00:27:48;;;;;;;25.45;13.55;;;21.70;99.90;;;;;;5011947;28;20048;-65
2022/08/16 00:30:16;;;;;;;21.02;14.63;;;21.70;99.90;;;;;;5011741;28;20034;-65
2022/08/16 00:32:45;;;;;;;19.95;15.25;;;21.70;99.90;;;;;;5012102;28;20041;-65
2022/08/16 00:35:15;;;;;;;17.48;14.30;;;21.70;99.90;;;;;;5011423;28;20038;-65
2022/08/16 00:37:41;;;;;;;21.58;14.57;;;21.80;99.90;;;;;;5010586;28;20050;-65
2022/08/16 00:40:08;;;;;;;21.50;14.15;;;21.80;99.90;;;;;;5010402;28;20536;-65
2022/08/16 00:42:33;;;;;;;18.58;15.30;;;21.70;99.90;;;;;;5011668;28;20405;-65
2022/08/16 00:45:26;;;;;;;21.20;14.75;;;21.80;99.90;;;;;;5010529;28;20041;-65
2022/08/16 00:47:53;;;;;;;20.55;16.30;;;21.70;99.90;;;;;;5011639;28;20046;-65
2022/08/16 00:50:23;;;;;;;21.77;16.25;;;21.80;99.90;;;;;;5009949;28;20038;-64
2022/08/16 00:52:49;;;;;;;19.60;15.32;;;21.70;99.90;;;;;;5011534;28;20042;-65
2022/08/16 00:55:14;;;;;;;27.83;18.35;;;21.60;99.90;;;;;;5011437;28;20044;-65
2022/08/16 00:57:40;;;;;;;22.50;17.33;;;21.50;99.90;;;;;;5011684;28;20034;-65
2022/08/16 01:00:08;;;;;;;23.60;16.83;;;21.50;99.90;;;;;;5011277;28;20044;-65
2022/08/16 01:02:34;;;;;;;20.38;16.20;;;21.50;99.90;;;;;;5010048;28;20050;-65
2022/08/16 01:05:00;;;;;;;21.92;17.08;;;21.40;99.90;;;;;;5011405;28;20042;-65
2022/08/16 01:07:27;;;;;;;22.42;17.48;;;21.30;99.90;;;;;;5011337;28;20446;-64
2022/08/16 01:09:53;;;;;;;20.80;14.85;;;21.40;99.90;;;;;;5011261;28;20042;-65
2022/08/16 01:12:20;;;;;;;19.10;15.13;;;21.30;99.90;;;;;;5011493;28;20521;-65
2022/08/16 01:14:49;;;;;;;20.15;15.20;;;21.20;99.90;;;;;;5010139;28;20453;-65
2022/08/16 01:17:18;;;;;;;19.35;14.70;;;21.30;99.90;;;;;;5011318;28;20041;-65
2022/08/16 01:19:48;;;;;;;17.40;14.05;;;21.30;99.90;;;;;;5009568;28;20041;-64
2022/08/16 01:22:48;;;;;;;19.48;16.50;;;21.30;99.90;;;;;;5009870;28;20077;-65
2022/08/16 01:25:28;;;;;;;23.17;16.60;;;21.40;99.90;;;;;;5011363;28;20125;-64
2022/08/16 01:27:57;;;;;;;19.88;17.73;;;21.40;99.90;;;;;;5009834;28;20046;-65
2022/08/16 01:30:26;;;;;;;25.30;18.95;;;21.40;99.90;;;;;;5010749;28;20053;-65
2022/08/16 01:32:54;;;;;;;27.63;22.25;;;21.40;99.90;;;;;;5011287;28;20062;-65
2022/08/16 01:35:22;;;;;;;29.38;23.58;;;21.40;99.90;;;;;;5011162;28;20038;-65
2022/08/16 01:37:51;;;;;;;30.02;23.90;;;21.30;99.90;;;;;;5009951;28;20684;-64
2022/08/16 01:40:19;;;;;;;32.15;24.92;;;21.30;99.90;;;;;;5010748;28;20030;-65
2022/08/16 01:42:47;;;;;;;31.88;24.15;;;21.30;99.90;;;;;;5010929;28;20490;-65
2022/08/16 01:45:12;;;;;;;31.27;25.55;;;21.30;99.90;;;;;;5011149;28;20136;-65
2022/08/16 01:47:39;;;;;;;31.63;25.75;;;21.20;99.90;;;;;;5012192;28;20121;-65
2022/08/16 01:50:06;;;;;;;31.65;24.42;;;21.30;99.90;;;;;;5014642;28;20046;-65
2022/08/16 01:52:32;;;;;;;31.05;24.88;;;21.30;99.90;;;;;;5014918;28;20091;-65
2022/08/16 01:54:58;;;;;;;31.17;24.13;;;21.30;99.90;;;;;;5013650;28;20050;-64
2022/08/16 01:57:24;;;;;;;31.50;23.83;;;21.30;99.90;;;;;;5014624;28;20042;-65
2022/08/16 01:59:50;;;;;;;26.90;23.98;;;21.30;99.90;;;;;;5014611;28;20045;-65
2022/08/16 02:02:16;;;;;;;33.08;23.77;;;21.30;99.90;;;;;;5014615;28;20042;-64
2022/08/16 02:04:41;;;;;;;27.70;23.52;;;21.30;99.90;;;;;;5014797;28;20069;-65
2022/08/16 02:07:08;;;;;;;34.20;23.42;;;21.30;99.90;;;;;;5014638;28;20042;-65
2022/08/16 02:09:36;;;;;;;30.52;21.33;;;21.20;99.90;;;;;;5014311;28;20084;-64
2022/08/16 02:12:05;;;;;;;31.10;23.17;;;21.20;99.90;;;;;;5014456;28;20744;-65
2022/08/16 02:14:32;;;;;;;28.10;21.17;;;21.20;99.90;;;;;;5014708;28;20037;-65
2022/08/16 02:17:00;;;;;;;25.13;20.52;;;21.20;99.90;;;;;;5014350;28;20046;-65
2022/08/16 02:19:28;;;;;;;24.20;19.92;;;21.10;99.90;;;;;;5014043;28;20436;-65
2022/08/16 02:21:54;;;;;;;27.50;20.40;;;21.10;99.90;;;;;;5014217;28;20521;-64
2022/08/16 02:24:21;;;;;;;25.17;20.77;;;21.10;99.90;;;;;;5013039;28;20100;-65
2022/08/16 02:26:47;;;;;;;22.73;19.13;;;21.10;99.90;;;;;;5014146;28;20129;-65
2022/08/16 02:29:13;;;;;;;25.58;20.90;;;21.00;99.90;;;;;;5013995;28;20052;-64
2022/08/16 02:31:39;;;;;;;29.38;22.88;;;20.70;99.90;;;;;;5012894;28;20038;-65
2022/08/16 02:34:06;;;;;;;32.47;23.75;;;20.60;99.90;;;;;;5014205;28;20521;-64
2022/08/16 02:36:33;;;;;;;32.20;24.17;;;20.60;99.90;;;;;;4996441;28;20144;-65
2022/08/16 02:38:59;;;;;;;30.88;22.80;;;20.50;99.90;;;;;;5013631;28;20042;-65
2022/08/16 02:41:24;;;;;;;30.33;24.02;;;20.50;99.90;;;;;;5013782;28;20060;-65
2022/08/16 02:43:50;;;;;;;30.00;24.20;;;20.40;99.90;;;;;;5014255;28;20029;-64
2022/08/16 02:46:15;;;;;;;32.40;24.67;;;20.50;99.90;;;;;;5014099;28;20050;-65
2022/08/16 02:48:41;;;;;;;33.78;24.55;;;20.40;99.90;;;;;;5013556;28;20045;-64
2022/08/16 02:51:09;;;;;;;31.17;24.77;;;20.40;99.90;;;;;;5013735;28;20120;-65
2022/08/16 02:53:36;;;;;;;30.58;25.95;;;20.50;99.90;;;;;;5013666;28;20050;-65
2022/08/16 02:56:04;;;;;;;32.00;25.23;;;20.50;99.90;;;;;;5013546;28;20033;-65
2022/08/16 02:58:31;;;;;;;33.28;25.40;;;20.60;99.90;;;;;;5013206;28;20049;-65
2022/08/16 03:00:57;;;;;;;34.70;26.10;;;20.60;99.90;;;;;;5013368;28;20046;-65
2022/08/16 03:03:24;;;;;;;33.58;26.77;;;20.60;99.90;;;;;;5013619;28;20037;-65
2022/08/16 03:05:50;;;;;;;31.42;25.20;;;20.60;99.90;;;;;;5013589;28;20061;-65
2022/08/16 03:08:17;;;;;;;34.95;27.60;;;20.60;99.90;;;;;;5013479;28;20120;-65
2022/08/16 03:10:43;;;;;;;32.03;26.48;;;20.50;99.90;;;;;;5013054;28;20516;-65
2022/08/16 03:13:09;;;;;;;34.35;26.02;;;20.50;99.90;;;;;;5013065;28;20117;-65
2022/08/16 03:15:35;;;;;;;34.05;27.15;;;20.50;99.90;;;;;;5013206;28;20461;-65
2022/08/16 03:18:01;;;;;;;30.08;25.35;;;20.50;99.90;;;;;;5013294;28;20124;-65
2022/08/16 03:20:27;;;;;;;30.23;23.25;;;20.50;99.90;;;;;;5011507;28;20042;-65
2022/08/16 03:22:52;;;;;;;30.40;24.15;;;20.50;99.90;;;;;;5013136;28;20045;-65
2022/08/16 03:25:18;;;;;;;35.33;23.33;;;20.50;99.90;;;;;;5013084;28;20040;-64
2022/08/16 03:27:44;;;;;;;29.70;22.92;;;20.50;99.90;;;;;;5013104;28;20123;-64
2022/08/16 03:30:14;;;;;;;26.52;22.98;;;20.50;99.90;;;;;;5011440;28;20038;-65
2022/08/16 03:32:40;;;;;;;26.13;22.52;;;20.50;99.90;;;;;;5011752;28;20049;-65
2022/08/16 03:35:06;;;;;;;29.58;22.85;;;20.50;99.90;;;;;;5012984;28;20038;-65
2022/08/16 03:37:32;;;;;;;26.15;22.38;;;20.50;99.90;;;;;;5011866;28;20402;-65
2022/08/16 03:39:58;;;;;;;30.15;23.23;;;20.50;99.90;;;;;;4994889;28;20049;-65
2022/08/16 03:42:24;;;;;;;28.63;22.65;;;20.40;99.90;;;;;;5012941;28;20034;-65
2022/08/16 03:44:49;;;;;;;27.85;22.67;;;20.50;99.90;;;;;;5011552;28;20046;-65
2022/08/16 03:47:15;;;;;;;28.73;23.80;;;20.40;99.90;;;;;;5011457;28;20583;-65
2022/08/16 03:49:41;;;;;;;29.08;22.92;;;20.40;99.90;;;;;;5011017;28;20042;-65
2022/08/16 03:52:07;;;;;;;27.13;22.98;;;20.30;99.90;;;;;;5012616;28;20038;-65
2022/08/16 03:54:34;;;;;;;30.13;23.98;;;20.30;99.90;;;;;;5012749;28;20057;-65
2022/08/16 03:57:00;;;;;;;29.55;24.65;;;20.30;99.90;;;;;;5012565;28;20116;-65
2022/08/16 03:59:26;;;;;;;32.03;24.38;;;20.20;99.90;;;;;;5012314;28;20077;-65
2022/08/16 04:01:51;;;;;;;29.35;24.20;;;20.20;99.90;;;;;;5012577;28;20042;-65
2022/08/16 04:04:17;;;;;;;34.88;24.23;;;20.20;99.90;;;;;;5012492;28;20044;-64
2022/08/16 04:06:43;;;;;;;33.13;24.58;;;20.20;99.90;;;;;;5012297;28;20099;-64
2022/08/16 04:09:08;;;;;;;29.70;23.95;;;20.20;99.90;;;;;;5010562;28;20041;-65
2022/08/16 04:11:34;;;;;;;29.98;23.85;;;20.20;99.90;;;;;;5010218;28;20092;-65
2022/08/16 04:13:59;;;;;;;31.05;24.70;;;20.20;99.90;;;;;;5012401;28;20048;-65
2022/08/16 04:16:25;;;;;;;30.73;23.27;;;20.10;99.90;;;;;;5010032;28;20053;-65
2022/08/16 04:18:51;;;;;;;31.95;22.75;;;20.10;99.90;;;;;;5008974;28;20247;-64
2022/08/16 04:21:16;;;;;;;34.72;24.02;;;20.10;99.90;;;;;;5009262;28;20509;-64
2022/08/16 04:23:42;;;;;;;29.98;23.80;;;20.10;99.90;;;;;;5010869;28;20040;-64
2022/08/16 04:26:08;;;;;;;38.03;24.77;;;20.10;99.90;;;;;;5011686;28;20042;-65
2022/08/16 04:28:33;;;;;;;30.20;23.08;;;20.00;99.90;;;;;;5010402;28;20038;-64
2022/08/16 04:30:59;;;;;;;31.70;23.27;;;20.00;99.90;;;;;;5011125;28;20038;-65
2022/08/16 04:33:25;;;;;;;30.77;23.40;;;20.00;99.90;;;;;;5010817;28;20042;-65
2022/08/16 04:35:52;;;;;;;32.33;23.60;;;20.00;99.90;;;;;;5010733;28;20045;-64
2022/08/16 04:38:18;;;;;;;30.20;21.98;;;20.00;99.90;;;;;;5011970;28;20088;-64
2022/08/16 04:40:46;;;;;;;31.10;22.35;;;20.00;99.90;;;;;;5011492;28;20077;-65
2022/08/16 04:43:12;;;;;;;28.33;22.25;;;20.00;99.90;;;;;;5011919;28;20042;-65
2022/08/16 04:45:38;;;;;;;34.35;23.38;;;20.10;99.90;;;;;;5011866;28;20041;-65
2022/08/16 04:48:04;;;;;;;32.47;23.35;;;20.00;99.90;;;;;;5011632;28;20513;-65
2022/08/16 04:50:30;;;;;;;28.23;22.02;;;20.00;99.90;;;;;;5011289;28;20046;-65
2022/08/16 04:52:57;;;;;;;27.77;22.73;;;20.00;99.90;;;;;;5011738;28;20034;-65
2022/08/16 04:55:25;;;;;;;30.88;23.42;;;20.00;99.90;;;;;;5011750;28;20042;-65
2022/08/16 04:57:52;;;;;;;29.88;20.80;;;20.00;99.90;;;;;;5010281;28;20125;-64
2022/08/16 05:00:21;;;;;;;29.27;21.50;;;20.10;99.90;;;;;;5011156;28;20072;-65
2022/08/16 05:02:54;;;;;;;31.27;22.42;;;20.00;99.90;;;;;;5011276;28;20045;-65
2022/08/16 05:05:21;;;;;;;29.80;21.58;;;20.10;99.90;;;;;;5011649;28;20049;-64
2022/08/16 05:07:47;;;;;;;27.15;21.38;;;20.10;99.90;;;;;;5011576;28;20046;-65
2022/08/16 05:10:14;;;;;;;31.02;22.33;;;20.10;99.90;;;;;;5011057;28;20533;-65
2022/08/16 05:12:39;;;;;;;28.48;21.23;;;20.10;99.90;;;;;;5011465;28;20056;-64
2022/08/16 05:15:07;;;;;;;28.73;22.42;;;20.20;99.90;;;;;;5011315;28;20094;-64
2022/08/16 05:17:33;;;;;;;28.98;20.73;;;20.30;99.90;;;;;;5011236;28;20050;-64
2022/08/16 05:19:59;;;;;;;27.15;20.63;;;20.40;99.90;;;;;;5009625;28;20088;-65
2022/08/16 05:22:25;;;;;;;28.38;20.50;;;20.50;99.90;;;;;;4993276;28;20050;-65
2022/08/16 05:24:50;;;;;;;28.70;20.38;;;20.60;99.90;;;;;;5011343;28;20034;-65
2022/08/16 05:27:16;;;;;;;31.30;20.50;;;20.70;99.90;;;;;;5011160;28;20567;-65
2022/08/16 05:29:42;;;;;;;33.63;22.20;;;20.60;99.90;;;;;;5009835;28;20038;-64
2022/08/16 05:32:08;;;;;;;26.23;20.73;;;20.80;99.90;;;;;;5011187;28;20041;-65
2022/08/16 05:34:33;;;;;;;32.35;21.83;;;20.80;99.90;;;;;;5011365;28;20069;-65
2022/08/16 05:36:59;;;;;;;29.63;21.27;;;20.80;99.90;;;;;;5011294;28;20449;-65
2022/08/16 05:39:26;;;;;;;27.33;20.73;;;20.90;99.90;;;;;;5010899;28;20125;-65
2022/08/16 05:41:52;;;;;;;29.08;20.92;;;20.90;99.90;;;;;;5011092;28;20052;-65
2022/08/16 05:44:20;;;;;;;28.40;21.27;;;21.00;99.90;;;;;;5011108;28;20049;-65
2022/08/16 05:46:46;;;;;;;26.67;21.20;;;21.10;99.90;;;;;;5011267;28;20034;-65
2022/08/16 05:49:12;;;;;;;33.58;20.65;;;21.20;99.90;;;;;;5009582;28;20500;-65
2022/08/16 05:51:40;;;;;;;28.83;22.23;;;21.20;99.90;;;;;;5011107;28;20046;-65
2022/08/16 05:54:06;;;;;;;25.73;19.60;;;21.30;99.90;;;;;;5010869;28;20120;-66
2022/08/16 05:56:32;;;;;;;28.60;19.52;;;21.50;99.90;;;;;;5010909;28;20041;-66
2022/08/16 05:58:57;;;;;;;34.47;21.25;;;21.50;99.90;;;;;;5009058;28;20509;-66
2022/08/16 06:01:23;;;;;;;25.73;20.90;;;21.60;99.90;;;;;;5009358;28;20046;-66
2022/08/16 06:03:48;;;;;;;27.25;19.92;;;21.70;99.90;;;;;;5011073;28;20497;-66
2022/08/16 06:06:14;;;;;;;30.80;21.40;;;21.70;99.90;;;;;;5010784;28;20129;-66
2022/08/16 06:08:40;;;;;;;29.80;21.27;;;21.70;99.90;;;;;;5010736;28;20034;-66
2022/08/16 06:11:08;;;;;;;31.05;21.88;;;21.90;99.90;;;;;;5010762;28;20042;-67
2022/08/16 06:13:36;;;;;;;27.55;21.17;;;22.00;99.90;;;;;;5009447;28;20056;-66
2022/08/16 06:16:03;;;;;;;32.42;20.67;;;22.00;99.90;;;;;;5009382;28;20057;-66
2022/08/16 06:18:28;;;;;;;27.48;20.90;;;22.00;99.90;;;;;;5013513;28;20065;-66
2022/08/16 06:20:54;;;;;;;32.78;20.83;;;22.00;99.90;;;;;;5010410;28;20077;-66
2022/08/16 06:23:20;;;;;;;29.25;20.80;;;21.90;99.90;;;;;;5009388;28;20117;-66
2022/08/16 06:25:45;;;;;;;26.70;21.35;;;21.90;99.90;;;;;;5009339;28;20120;-66
2022/08/16 06:28:11;;;;;;;26.80;20.35;;;21.80;99.90;;;;;;5010560;28;20120;-66
2022/08/16 06:30:38;;;;;;;25.55;19.10;;;21.80;99.90;;;;;;5010462;28;20034;-65
2022/08/16 06:33:04;;;;;;;27.20;18.45;;;21.90;99.90;;;;;;5010956;28;20042;-66
2022/08/16 06:35:30;;;;;;;28.33;18.85;;;21.80;99.90;;;;;;5013962;28;20048;-66
2022/08/16 06:37:56;;;;;;;24.73;18.48;;;21.80;99.90;;;;;;5012639;28;20088;-66
2022/08/16 06:40:23;;;;;;;29.85;18.95;;;21.70;99.90;;;;;;5012378;28;20034;-66
2022/08/16 06:42:51;;;;;;;29.38;19.33;;;21.70;99.90;;;;;;5013730;28;20042;-66
2022/08/16 06:45:17;;;;;;;26.38;19.27;;;21.70;99.90;;;;;;5013997;28;20050;-66
2022/08/16 06:47:42;;;;;;;24.75;18.05;;;21.70;99.90;;;;;;5012497;28;20053;-66
2022/08/16 06:50:08;;;;;;;28.45;18.35;;;21.70;99.90;;;;;;5016185;28;20087;-66
2022/08/16 06:52:35;;;;;;;24.48;17.98;;;21.80;99.90;;;;;;5029488;28;20041;-66
2022/08/16 06:55:02;;;;;;;27.55;19.17;;;21.90;99.90;;;;;;5033385;28;20052;-67
2022/08/16 06:57:27;;;;;;;22.48;17.17;;;21.80;99.90;;;;;;5033380;28;20041;-66
2022/08/16 06:59:53;;;;;;;25.00;17.73;;;21.90;99.90;;;;;;5033157;28;20091;-66
2022/08/16 07:02:18;;;;;;;26.73;17.98;;;21.80;99.90;;;;;;5033365;28;20042;-66
2022/08/16 07:04:44;;;;;;;22.95;17.52;;;21.90;99.90;;;;;;5032994;28;20046;-66
2022/08/16 07:07:09;;;;;;;25.67;18.20;;;21.80;99.90;;;;;;5033224;28;20037;-66
2022/08/16 07:09:35;;;;;;;22.45;17.83;;;21.90;99.90;;;;;;5032594;28;20516;-66
2022/08/16 07:12:01;;;;;;;25.73;18.77;;;21.90;99.90;;;;;;5023285;28;20041;-66
2022/08/16 07:14:27;;;;;;;22.55;17.27;;;22.00;99.90;;;;;;5013392;28;20485;-66
2022/08/16 07:16:56;;;;;;;30.15;17.33;;;22.00;99.90;;;;;;5013196;28;20469;-66
2022/08/16 07:19:21;;;;;;;27.65;18.00;;;22.10;99.90;;;;;;5012960;28;20042;-66
2022/08/16 07:21:47;;;;;;;23.73;17.67;;;22.20;99.90;;;;;;5013273;28;20619;-66
2022/08/16 07:24:12;;;;;;;25.65;18.08;;;22.20;99.90;;;;;;5013115;28;20476;-66
2022/08/16 07:26:38;;;;;;;24.42;18.10;;;22.30;99.90;;;;;;5012986;28;20045;-67
2022/08/16 07:29:04;;;;;;;21.98;17.85;;;22.40;99.90;;;;;;4994987;28;20085;-66
2022/08/16 07:31:29;;;;;;;23.50;17.92;;;22.50;99.90;;;;;;5013076;28;20038;-66
2022/08/16 07:33:55;;;;;;;24.80;18.40;;;22.60;99.90;;;;;;5011665;28;20054;-65
2022/08/16 07:36:21;;;;;;;22.33;16.48;;;22.70;99.90;;;;;;5011473;28;20056;-65
2022/08/16 07:38:47;;;;;;;24.08;19.55;;;22.80;99.90;;;;;;5012954;28;20046;-65
2022/08/16 07:41:12;;;;;;;30.27;19.33;;;22.90;99.90;;;;;;5011702;28;20512;-66
2022/08/16 07:43:38;;;;;;;24.25;19.73;;;22.90;99.90;;;;;;5013240;28;20513;-65
2022/08/16 07:46:04;;;;;;;24.33;19.15;;;23.00;99.90;;;;;;5012949;28;20375;-65
2022/08/16 07:48:30;;;;;;;27.60;18.45;;;23.00;99.90;;;;;;5012613;28;20070;-66
2022/08/16 07:50:55;;;;;;;26.90;18.38;;;23.20;99.90;;;;;;5012278;28;20119;-66
2022/08/16 07:53:21;;;;;;;22.90;18.27;;;23.20;99.90;;;;;;4994932;28;20175;-66
2022/08/16 07:55:47;;;;;;;23.23;19.10;;;23.30;99.90;;;;;;4994862;28;20053;-65
2022/08/16 07:58:13;;;;;;;24.23;17.85;;;23.30;99.90;;;;;;5012352;28;20552;-65
2022/08/16 08:00:39;;;;;;;27.33;19.42;;;23.40;99.90;;;;;;5012120;28;20041;-65
2022/08/16 08:15:26;;;;;;;25.17;19.00;;;23.60;99.90;;;;;;5086980;27;20397;-72
2022/08/16 08:17:51;;;;;;;25.95;18.15;;;23.90;99.90;;;;;;5085750;28;20071;-71
2022/08/16 08:20:19;;;;;;;23.30;18.13;;;23.90;99.90;;;;;;5086594;28;20109;-72
2022/08/16 08:22:47;;;;;;;24.45;16.92;;;23.90;99.90;;;;;;5086007;28;20044;-72
2022/08/16 08:25:12;;;;;;;22.02;17.70;;;24.00;99.90;;;;;;5086186;28;20054;-72
2022/08/16 08:27:38;;;;;;;25.38;19.20;;;24.00;99.90;;;;;;5086644;28;20062;-72
2022/08/16 08:30:05;;;;;;;23.38;18.17;;;24.10;99.90;;;;;;5086347;28;20071;-72
2022/08/16 08:32:31;;;;;;;23.58;18.17;;;24.10;99.90;;;;;;5069342;28;20062;-72
2022/08/16 08:34:58;;;;;;;22.35;19.15;;;24.10;99.90;;;;;;5085592;28;20274;-72
2022/08/16 08:37:26;;;;;;;24.35;17.88;;;24.10;99.90;;;;;;5087356;28;20101;-72
2022/08/16 08:39:52;;;;;;;24.58;19.13;;;24.10;99.90;;;;;;5087398;28;20446;-71
2022/08/16 08:42:18;;;;;;;25.30;19.08;;;24.20;99.90;;;;;;5087324;28;20552;-72
2022/08/16 08:44:43;;;;;;;28.42;18.55;;;24.30;99.90;;;;;;5085631;28;20072;-72
2022/08/16 08:47:09;;;;;;;25.67;18.52;;;24.30;99.90;;;;;;5086065;28;20123;-72
2022/08/16 08:49:36;;;;;;;23.25;17.58;;;24.40;99.90;;;;;;5086061;28;20040;-73
2022/08/16 08:52:03;;;;;;;26.40;19.23;;;24.40;99.90;;;;;;5087202;28;20032;-72
2022/08/16 08:54:29;;;;;;;23.90;18.13;;;24.60;99.90;;;;;;5086735;28;20447;-72
2022/08/16 08:56:55;;;;;;;24.23;18.20;;;24.60;99.90;;;;;;5085718;28;20076;-72
2022/08/16 08:59:21;;;;;;;24.42;18.67;;;24.60;99.90;;;;;;5087031;28;20102;-72
2022/08/16 09:01:48;;;;;;;22.70;16.73;;;24.70;99.90;;;;;;5068865;28;20048;-72
2022/08/16 09:04:14;;;;;;;20.65;16.73;;;24.70;99.90;;;;;;5086653;28;20097;-72
2022/08/16 09:06:41;;;;;;;23.17;16.40;;;24.70;99.90;;;;;;5086886;28;20115;-72
2022/08/16 09:09:08;;;;;;;24.02;15.02;;;24.80;99.90;;;;;;5085519;28;20054;-71
2022/08/16 09:11:35;;;;;;;23.10;14.93;;;24.90;99.90;;;;;;5068285;28;20036;-73
2022/08/16 09:14:01;;;;;;;18.50;14.77;;;25.10;99.90;;;;;;5084921;28;20051;-72
2022/08/16 09:16:26;;;;;;;20.73;16.58;;;25.00;99.90;;;;;;5072876;28;20119;-71
2022/08/16 09:18:52;;;;;;;20.67;14.82;;;25.10;99.90;;;;;;5073070;28;20116;-71
2022/08/16 09:21:18;;;;;;;18.42;15.40;;;25.10;99.90;;;;;;5071622;28;20040;-72
2022/08/16 09:23:44;;;;;;;20.30;15.27;;;25.10;99.90;;;;;;5071155;28;20081;-74
2022/08/16 09:26:14;;;;;;;19.27;13.35;;;25.20;99.90;;;;;;5071529;28;20397;-72
2022/08/16 09:28:41;;;;;;;19.67;14.13;;;25.30;99.90;;;;;;5073035;28;20120;-73
2022/08/16 09:31:06;;;;;;;15.70;12.75;;;25.30;99.90;;;;;;5071567;28;20033;-72
2022/08/16 09:33:32;;;;;;;18.40;13.23;;;25.30;99.90;;;;;;5054540;28;20558;-72
2022/08/16 09:35:58;;;;;;;15.20;11.38;;;25.40;99.90;;;;;;5070853;28;20051;-73
2022/08/16 09:38:24;;;;;;;18.33;11.90;;;25.50;99.90;;;;;;5071111;28;20055;-73
2022/08/16 09:40:50;;;;;;;15.13;10.75;;;25.50;99.90;;;;;;5072636;28;20041;-72
2022/08/16 09:43:18;;;;;;;15.82;11.10;;;25.50;99.90;;;;;;5071036;28;20119;-72
2022/08/16 09:45:45;;;;;;;18.83;11.10;;;25.60;99.90;;;;;;5072209;28;20127;-72
2022/08/16 09:48:13;;;;;;;13.75;10.32;;;25.70;99.90;;;;;;5072370;28;20446;-72
2022/08/16 09:50:40;;;;;;;14.43;7.85;;;25.70;99.90;;;;;;5072418;28;20143;-72
2022/08/16 09:53:13;;;;;;;11.52;8.18;;;25.70;99.90;;;;;;5072555;28;20116;-72
2022/08/16 09:55:39;;;;;;;11.80;8.50;;;25.70;99.90;;;;;;5072034;28;20036;-72
2022/08/16 09:58:05;;;;;;;13.00;8.30;;;25.80;99.90;;;;;;5070949;28;20055;-72
2022/08/16 10:00:31;;;;;;;13.00;8.50;;;25.80;99.90;;;;;;5070933;28;20045;-72
2022/08/16 10:02:57;;;;;;;11.70;8.32;;;25.80;99.90;;;;;;5070817;28;20528;-73
2022/08/16 10:05:23;;;;;;;9.48;8.07;;;25.90;99.90;;;;;;5070376;28;20063;-72
2022/08/16 10:07:52;;;;;;;14.70;9.18;;;25.90;99.90;;;;;;5072304;28;20444;-72
2022/08/16 10:10:20;;;;;;;15.63;10.00;;;26.00;99.90;;;;;;5061630;28;20041;-72
2022/08/16 10:15:32;;;;;;;13.35;7.85;;;26.10;99.90;;;;;;5058999;28;20045;-72
2022/08/16 10:17:58;;;;;;;9.77;6.93;;;26.30;99.90;;;;;;5062510;28;20048;-72
2022/08/16 10:20:24;;;;;;;9.32;7.68;;;26.30;99.90;;;;;;5060417;28;20374;-72
2022/08/16 10:22:50;;;;;;;13.02;8.48;;;26.40;99.90;;;;;;5058728;28;20063;-72
2022/08/16 10:25:16;;;;;;;13.18;8.38;;;26.30;99.90;;;;;;5058737;28;20116;-72
2022/08/16 10:27:44;;;;;;;16.35;7.55;;;26.40;99.90;;;;;;5059188;28;20044;-71
2022/08/16 10:30:10;;;;;;;9.70;6.30;;;26.40;99.90;;;;;;5069242;28;20474;-71
2022/08/16 10:32:36;;;;;;;9.60;6.57;;;26.40;99.90;;;;;;5069963;28;20036;-72
2022/08/16 10:35:02;;;;;;;8.45;6.13;;;26.40;99.90;;;;;;5069700;28;20358;-72
2022/08/16 10:37:29;;;;;;;10.27;5.70;;;26.50;99.90;;;;;;5070073;28;20070;-71
2022/08/16 10:39:55;;;;;;;10.07;6.60;;;26.50;99.90;;;;;;5070115;28;20555;-72
2022/08/16 10:42:21;;;;;;;11.57;6.70;;;26.60;99.90;;;;;;5070084;28;20052;-71
2022/08/16 10:44:47;;;;;;;11.38;7.47;;;26.60;99.90;;;;;;5070753;28;20090;-71
2022/08/16 10:47:13;;;;;;;12.85;7.38;;;26.60;99.90;;;;;;5069902;28;20040;-70
2022/08/16 10:49:39;;;;;;;9.40;7.72;;;26.70;99.90;;;;;;5069493;28;20094;-70
2022/08/16 10:52:05;;;;;;;14.73;8.18;;;26.70;99.90;;;;;;5069774;28;20036;-71
2022/08/16 10:54:31;;;;;;;9.75;7.68;;;26.90;99.90;;;;;;5069513;28;20040;-70
2022/08/16 10:57:02;;;;;;;10.05;6.40;;;26.90;99.90;;;;;;5069638;28;20123;-70
2022/08/16 10:59:30;;;;;;;8.98;6.05;;;26.90;99.90;;;;;;5053088;28;20056;-70
2022/08/16 11:01:56;;;;;;;7.57;5.95;;;26.90;99.90;;;;;;5052911;28;20040;-70
2022/08/16 11:04:22;;;;;;;6.20;5.30;;;27.00;99.90;;;;;;5070289;28;20036;-71
2022/08/16 11:06:48;;;;;;;10.90;5.50;;;26.90;99.50;;;;;;5069226;28;20041;-70
2022/08/16 11:20:27;;;;;;;6.50;5.13;;;27.40;99.00;;;;;;5025844;28;20130;-64
2022/08/16 11:22:53;;;;;;;7.93;5.05;;;27.30;98.50;;;;;;5028344;28;20487;-65
2022/08/16 11:25:23;;;;;;;9.88;5.30;;;27.60;98.10;;;;;;5009674;28;20584;-65
2022/08/16 11:27:49;;;;;;;10.68;5.38;;;27.40;98.20;;;;;;5011597;28;20040;-65
2022/08/16 11:30:15;;;;;;;7.30;4.90;;;27.40;98.30;;;;;;5011402;28;20116;-65
2022/08/16 11:32:43;;;;;;;9.50;4.57;;;27.40;98.10;;;;;;5011270;28;20079;-65
2022/08/16 11:35:12;;;;;;;9.57;5.40;;;27.50;97.90;;;;;;5009781;28;20560;-65
2022/08/16 11:37:39;;;;;;;7.68;5.70;;;27.40;98.00;;;;;;5011031;28;20042;-65
2022/08/16 11:40:07;;;;;;;11.90;5.82;;;27.50;98.30;;;;;;5011144;28;20037;-65
2022/08/16 11:42:33;;;;;;;8.73;5.28;;;27.40;98.20;;;;;;5011134;28;20569;-65
2022/08/16 11:44:59;;;;;;;26.58;5.22;;;27.40;97.90;;;;;;5010889;28;20042;-65
2022/08/16 11:47:24;;;;;;;9.45;4.20;;;27.40;97.60;;;;;;5011216;28;20183;-65
2022/08/16 11:49:50;;;;;;;7.10;4.40;;;27.50;97.20;;;;;;5011132;28;20711;-65
2022/08/16 11:52:16;;;;;;;11.50;4.45;;;27.60;96.90;;;;;;5010981;28;20041;-65
2022/08/16 11:54:43;;;;;;;11.70;4.40;;;27.70;97.10;;;;;;5011098;28;20100;-65
2022/08/16 11:57:10;;;;;;;6.15;4.80;;;27.70;96.70;;;;;;5011206;28;20042;-65
2022/08/16 11:59:37;;;;;;;4.65;4.25;;;27.60;96.50;;;;;;5011095;28;20100;-65
2022/08/16 12:02:05;;;;;;;6.72;4.80;;;27.70;96.80;;;;;;5011194;28;20054;-65
2022/08/16 12:04:32;;;;;;;9.38;4.28;;;27.80;96.70;;;;;;5010919;28;20065;-65
2022/08/16 12:07:03;;;;;;;6.82;4.10;;;27.80;95.80;;;;;;5010884;28;20399;-65
2022/08/16 12:09:29;;;;;;;9.93;4.50;;;27.90;96.20;;;;;;5010751;28;20038;-65
2022/08/16 12:11:55;;;;;;;8.23;4.35;;;27.90;96.30;;;;;;5011120;28;20567;-65
2022/08/16 12:14:21;;;;;;;10.55;5.13;;;27.90;96.10;;;;;;5010737;28;20447;-65
2022/08/16 12:16:46;;;;;;;7.38;3.65;;;28.00;95.20;;;;;;5010931;28;20053;-65
2022/08/16 12:19:13;;;;;;;5.05;3.92;;;28.00;95.70;;;;;;5010818;28;20038;-65
2022/08/16 12:21:39;;;;;;;5.72;3.70;;;28.00;94.60;;;;;;5011104;28;20049;-65
2022/08/16 12:24:05;;;;;;;5.55;4.13;;;28.10;94.90;;;;;;5009286;28;20054;-65
2022/08/16 12:26:32;;;;;;;6.38;3.38;;;28.10;94.40;;;;;;5010899;28;20038;-65
2022/08/16 12:28:59;;;;;;;7.18;3.70;;;28.20;94.60;;;;;;5009438;28;20042;-65
2022/08/16 12:31:26;;;;;;;6.32;3.55;;;28.10;93.90;;;;;;5010840;28;20042;-65
2022/08/16 12:33:52;;;;;;;5.57;3.55;;;28.20;93.80;;;;;;5010424;28;20082;-65
2022/08/16 12:36:19;;;;;;;3.70;3.40;;;28.20;94.00;;;;;;5009505;28;20555;-65
2022/08/16 12:38:45;;;;;;;4.45;3.30;;;28.30;93.50;;;;;;5010771;28;20034;-65
2022/08/16 12:41:12;;;;;;;3.97;3.10;;;28.30;93.40;;;;;;5010819;28;20042;-65
2022/08/16 12:43:40;;;;;;;5.85;3.45;;;28.50;93.00;;;;;;5010345;28;20050;-65
2022/08/16 12:46:07;;;;;;;4.90;3.17;;;28.40;93.20;;;;;;5010583;28;20042;-65
2022/08/16 12:51:21;;;;;;;4.63;3.30;;;28.30;92.10;;;;;;5013453;28;20079;-66
2022/08/16 12:53:50;;;;;;;8.77;3.85;;;28.40;92.50;;;;;;5014061;28;20046;-66
2022/08/16 12:56:18;;;;;;;5.32;3.58;;;28.40;92.40;;;;;;5012991;28;20048;-66